Time;durP1;ratioP1;P1;durP2;ratioP2;P2;SDS_P1;SDS_P2;PMS_P1;PMS_P2;Temp;Humidity;BMP_temperature;BMP_pressure;BME280_temperature;BME280_humidity;BME280_pressure;Samples;Min_cycle;Max_cycle;Signal;HPM_P1;HPM_P2
2021/01/05 00:06:49;;;;;;;30.7;24.5;;;;;;;2.71;90.39746;98260.08;;;;
2021/01/05 00:16:47;;;;;;;34.6;25.6;;;;;;;2.79;90.42773;98252.36;;;;
2021/01/05 00:26:45;;;;;;;26.5;23.7;;;;;;;2.88;90.15039;98261.39;;;;
2021/01/05 00:36:43;;;;;;;31.9;22.4;;;;;;;2.78;90.32617;98255.27;;;;
2021/01/05 00:46:41;;;;;;;33.8;25.1;;;;;;;2.79;90.27246;98255.02;;;;
2021/01/05 00:56:39;;;;;;;29.5;22.4;;;;;;;2.84;90.01953;98252.38;;;;
2021/01/05 01:06:38;;;;;;;31.8;23.9;;;;;;;2.91;89.54883;98234.28;;;;
2021/01/05 01:16:36;;;;;;;23.9;21.3;;;;;;;2.9;89.86523;98237.2;;;;
2021/01/05 01:26:34;;;;;;;26.2;21.7;;;;;;;2.89;90.06152;98246.23;;;;
2021/01/05 01:36:32;;;;;;;22.6;18.6;;;;;;;2.94;89.66406;98219.63;;;;
2021/01/05 01:46:30;;;;;;;30.1;23.9;;;;;;;2.75;89.93457;98206.05;;;;
2021/01/05 01:56:42;;;;;;;26.3;19.3;;;;;;;2.63;90.48242;98188.77;;;;
2021/01/05 02:06:33;;;;;;;20.6;18.1;;;;;;;2.65;90.7832;98192.75;;;;
2021/01/05 02:16:35;;;;;;;23.5;18;;;;;;;2.77;90.26953;98176.53;;;;
2021/01/05 02:26:29;;;;;;;28.8;17.9;;;;;;;2.8;89.89941;98173.33;;;;
2021/01/05 02:36:35;;;;;;;28.4;20.5;;;;;;;2.7;89.96777;98168.02;;;;
2021/01/05 02:46:51;;;;;;;36.9;22.4;;;;;;;2.64;90.45117;98147.8;;;;
2021/01/05 02:56:17;;;;;;;28;21.9;;;;;;;2.56;90.69824;98132.37;;;;
2021/01/05 03:06:16;;;;;;;29.3;24.1;;;;;;;2.6;90.52051;98120.94;;;;
2021/01/05 03:16:14;;;;;;;36.7;32.6;;;;;;;2.45;90.68652;98102.31;;;;
2021/01/05 03:26:12;;;;;;;37.5;25.3;;;;;;;2.29;91.3584;98106.05;;;;
2021/01/05 03:36:10;;;;;;;30.5;22.8;;;;;;;2.25;91.47168;98086.38;;;;
2021/01/05 03:46:08;;;;;;;32.4;27.9;;;;;;;2.25;91.41699;98076.54;;;;
2021/01/05 03:56:07;;;;;;;38.9;34.2;;;;;;;2.24;91.43652;98066.96;;;;
2021/01/05 04:06:04;;;;;;;28.7;25.6;;;;;;;2.25;91.20703;98060.59;;;;
2021/01/05 04:16:03;;;;;;;35.9;27.8;;;;;;;2.19;91.55566;98060.83;;;;
2021/01/05 04:26:01;;;;;;;33.3;27;;;;;;;2.16;91.66211;98056.84;;;;
2021/01/05 04:35:59;;;;;;;26.7;21.3;;;;;;;2.26;91.64844;98045.41;;;;
2021/01/05 04:45:57;;;;;;;50.3;44.8;;;;;;;2.29;91.21484;98050.22;;;;
2021/01/05 04:55:55;;;;;;;26.1;23.3;;;;;;;2.31;91.24121;98045.42;;;;
2021/01/05 05:05:53;;;;;;;29.5;23.4;;;;;;;2.28;91.16895;98040.64;;;;
2021/01/05 05:15:51;;;;;;;26.5;23.6;;;;;;;2.25;91.31738;98030.55;;;;
2021/01/05 05:25:50;;;;;;;30.8;23.9;;;;;;;2.27;91.47559;98039.03;;;;
2021/01/05 05:35:48;;;;;;;26.1;21.6;;;;;;;2.27;91.69629;98029.2;;;;
2021/01/05 05:45:46;;;;;;;30.3;25.1;;;;;;;2.37;91.04492;98031.84;;;;
2021/01/05 05:55:44;;;;;;;24.9;20.7;;;;;;;2.37;91.0332;98015.09;;;;
2021/01/05 06:05:43;;;;;;;20.8;16.4;;;;;;;2.38;90.89258;98024.67;;;;
2021/01/05 06:15:40;;;;;;;22.3;17.2;;;;;;;2.5;90.4668;98020.66;;;;
2021/01/05 06:25:38;;;;;;;22.8;17.4;;;;;;;2.48;90.48438;98009.5;;;;
2021/01/05 06:35:37;;;;;;;21.4;15.8;;;;;;;2.53;90.49414;97998.06;;;;
2021/01/05 06:45:35;;;;;;;26.2;17;;;;;;;2.64;90;97988.97;;;;
2021/01/05 07:05:31;;;;;;;14.8;13.2;;;;;;;2.7;90.14355;97993.23;;;;
2021/01/05 07:15:29;;;;;;;17.3;12.4;;;;;;;2.82;90.00293;97990.23;;;;
2021/01/05 07:25:28;;;;;;;13.3;8.3;;;;;;;2.83;89.43262;97989.98;;;;
2021/01/05 07:35:26;;;;;;;12.5;6.1;;;;;;;2.76;89.6582;97983.35;;;;
2021/01/05 07:45:24;;;;;;;13.8;11.1;;;;;;;2.78;89.90723;97971.36;;;;
2021/01/05 07:55:22;;;;;;;21.7;16.5;;;;;;;2.58;90.37109;97973.3;;;;
2021/01/05 08:05:20;;;;;;;18.9;16.2;;;;;;;2.64;89.75586;97977.55;;;;
2021/01/05 08:15:19;;;;;;;17.8;14.1;;;;;;;2.34;89.03125;97978.41;;;;
2021/01/05 08:25:17;;;;;;;19.4;17.3;;;;;;;2.17;89.05078;97964.62;;;;
2021/01/05 08:35:15;;;;;;;18;14.5;;;;;;;2.06;89.05273;97961.17;;;;
2021/01/05 08:45:13;;;;;;;19.7;15.9;;;;;;;2.12;89.35156;97960.09;;;;
2021/01/05 08:55:11;;;;;;;19.8;15.4;;;;;;;2.04;89.41211;97958;;;;
2021/01/05 09:05:09;;;;;;;19.9;15.6;;;;;;;2.02;89.3623;97958.25;;;;
2021/01/05 09:15:07;;;;;;;19.9;16.5;;;;;;;2.01;89.08496;97953.22;;;;
2021/01/05 09:25:05;;;;;;;19.1;15.9;;;;;;;2.01;88.95313;97947.91;;;;
2021/01/05 09:35:04;;;;;;;25.8;18.8;;;;;;;2.09;88.63672;97941.23;;;;
2021/01/05 09:45:02;;;;;;;21.5;17.7;;;;;;;2.07;88.41309;97938.05;;;;
2021/01/05 09:55:00;;;;;;;24.9;19.1;;;;;;;2.15;88.75098;97922.38;;;;
2021/01/05 10:04:58;;;;;;;28.3;19.8;;;;;;;2.32;88.85254;97925.52;;;;
2021/01/05 10:14:56;;;;;;;23.9;20.1;;;;;;;2.58;87.84473;97914.78;;;;
2021/01/05 10:24:54;;;;;;;32;21.9;;;;;;;2.46;87.37012;97910.56;;;;
2021/01/05 10:34:54;;;;;;;24;21;;;;;;;2.53;87.44922;97902.31;;;;
2021/01/05 10:44:51;;;;;;;24.4;21.5;;;;;;;2.38;87.79492;97889.86;;;;
2021/01/05 10:54:49;;;;;;;43;33.1;;;;;;;2.38;87.72754;97902.36;;;;
2021/01/05 11:04:47;;;;;;;31.4;22.9;;;;;;;2.22;87.66113;97900.83;;;;
2021/01/05 11:14:45;;;;;;;26.8;22.8;;;;;;;2.1;88.17773;97887.02;;;;
2021/01/05 11:24:44;;;;;;;36.2;22.7;;;;;;;1.86;88.50293;97892.92;;;;
2021/01/05 11:34:42;;;;;;;27.2;22.8;;;;;;;1.83;88.88281;97884.69;;;;
2021/01/05 11:44:40;;;;;;;30;25.4;;;;;;;1.8;89.07422;97882.57;;;;
2021/01/05 11:54:38;;;;;;;32.1;23.4;;;;;;;1.72;88.94727;97880.45;;;;
2021/01/05 12:04:36;;;;;;;24.3;18.2;;;;;;;1.67;88.94922;97891.86;;;;
2021/01/05 12:14:34;;;;;;;31.3;20.1;;;;;;;1.67;88.9043;97889.2;;;;
2021/01/05 12:24:32;;;;;;;42.8;34.9;;;;;;;1.65;88.59082;97890.55;;;;
2021/01/05 12:34:30;;;;;;;27.3;20.1;;;;;;;1.62;88.19043;97894.53;;;;
2021/01/05 12:44:29;;;;;;;31.4;23.4;;;;;;;1.52;88.78516;97899.85;;;;
2021/01/05 12:54:26;;;;;;;27.8;21.1;;;;;;;1.51;88.75195;97912.33;;;;
2021/01/05 13:04:24;;;;;;;29.4;21.5;;;;;;;1.47;89.49121;97921.88;;;;
2021/01/05 13:14:22;;;;;;;27.7;22;;;;;;;1.5;89.29688;97909.92;;;;
2021/01/05 13:24:20;;;;;;;25.6;21.9;;;;;;;1.35;89.37695;97909.94;;;;
2021/01/05 13:34:18;;;;;;;27.1;22.6;;;;;;;1.43;89.20703;97922.66;;;;
2021/01/05 13:44:16;;;;;;;31.2;23.8;;;;;;;1.28;89.07617;97920.02;;;;
2021/01/05 13:54:14;;;;;;;24.9;19.5;;;;;;;1.28;89.11133;97926.13;;;;
2021/01/05 14:04:12;;;;;;;29.2;21;;;;;;;1.16;89.36914;97940.68;;;;
2021/01/05 14:14:10;;;;;;;25.5;19.5;;;;;;;1.22;89.07617;97953.7;;;;
2021/01/05 14:24:08;;;;;;;28.6;21.6;;;;;;;1.15;89.01563;97962.96;;;;
2021/01/05 14:34:06;;;;;;;24;19.2;;;;;;;1.1;89.09375;97962.97;;;;
2021/01/05 14:44:04;;;;;;;30.1;20.6;;;;;;;1.09;89.18066;97964.81;;;;
2021/01/05 14:54:02;;;;;;;19.8;17.8;;;;;;;1.04;89.37793;97982.59;;;;
2021/01/05 15:04:01;;;;;;;27.3;19.4;;;;;;;0.96;89.62695;97995.3;;;;
2021/01/05 15:13:58;;;;;;;31.5;22.5;;;;;;;0.85;90.06445;97996.31;;;;
2021/01/05 15:23:56;;;;;;;25.1;20.2;;;;;;;0.84;89.85352;97994.7;;;;
2021/01/05 15:33:56;;;;;;;28.1;21.4;;;;;;;0.87;89.86035;97994.18;;;;
2021/01/05 15:43:55;;;;;;;30.2;23.4;;;;;;;0.82;90.09082;98004.79;;;;
2021/01/05 15:53:50;;;;;;;36.4;28;;;;;;;0.8;90.07617;98012.19;;;;
2021/01/05 16:03:48;;;;;;;48.2;35.6;;;;;;;0.84;90.09473;98020.42;;;;
2021/01/05 16:13:46;;;;;;;46;31;;;;;;;0.82;90.19043;98015.39;;;;
2021/01/05 16:23:44;;;;;;;35.6;29.2;;;;;;;0.83;89.90625;98021.5;;;;
2021/01/05 16:33:42;;;;;;;32.2;25.7;;;;;;;0.83;89.8623;98019.63;;;;
2021/01/05 16:43:40;;;;;;;29.3;21.2;;;;;;;0.75;89.88965;98036.05;;;;
2021/01/05 16:53:38;;;;;;;26.5;20;;;;;;;0.83;89.48926;98054.1;;;;
2021/01/05 17:03:36;;;;;;;27.9;20.3;;;;;;;0.81;89.50684;98048.27;;;;
2021/01/05 17:13:34;;;;;;;23.1;19.6;;;;;;;0.82;89.35547;98052.53;;;;
2021/01/05 17:23:32;;;;;;;27;19.9;;;;;;;0.74;89.05273;98060.97;;;;
2021/01/05 17:33:30;;;;;;;27;18.7;;;;;;;0.68;89.09473;98069.95;;;;
2021/01/05 17:43:27;;;;;;;24.7;19.1;;;;;;;0.61;88.89355;98077.33;;;;
2021/01/05 17:53:25;;;;;;;23.2;16.7;;;;;;;0.51;88.98242;98090.52;;;;
2021/01/05 18:03:23;;;;;;;31.7;22.6;;;;;;;0.49;89.12305;98104.02;;;;
2021/01/05 18:13:21;;;;;;;30.2;22.2;;;;;;;0.46;89.24609;98111.68;;;;
2021/01/05 18:23:19;;;;;;;45;31.9;;;;;;;0.52;89.18262;98115.19;;;;
2021/01/05 18:33:17;;;;;;;37.6;25.5;;;;;;;0.52;89.35742;98120.48;;;;
2021/01/05 18:43:15;;;;;;;27.9;21.3;;;;;;;0.52;89.30273;98120.48;;;;
2021/01/05 18:53:13;;;;;;;31.8;25.4;;;;;;;0.58;89.46777;98132.72;;;;
2021/01/05 19:03:10;;;;;;;19;17.1;;;;;;;0.48;89.21875;98123.65;;;;
2021/01/05 19:13:08;;;;;;;36.2;21.6;;;;;;;0.56;88.96094;98156.83;;;;
2021/01/05 19:23:06;;;;;;;29.9;19.2;;;;;;;0.62;88.78516;98141.77;;;;
2021/01/05 19:33:04;;;;;;;28.2;23.2;;;;;;;0.62;88.7207;98163.78;;;;
2021/01/05 19:43:02;;;;;;;34.4;24.4;;;;;;;0.75;88.59375;98165.2;;;;
2021/01/05 19:53:00;;;;;;;29.1;21;;;;;;;0.72;88.19043;98173.66;;;;
2021/01/05 20:02:58;;;;;;;33.2;21.3;;;;;;;0.65;88.33105;98179.19;;;;
2021/01/05 20:12:56;;;;;;;21.4;19.1;;;;;;;0.61;88.19043;98180.73;;;;
2021/01/05 20:22:55;;;;;;;33.7;19.1;;;;;;;0.57;88.11719;98200.85;;;;
2021/01/05 20:32:52;;;;;;;21.1;16.8;;;;;;;0.54;88.27637;98214.62;;;;
2021/01/05 20:42:49;;;;;;;33.6;21.6;;;;;;;0.49;88.08008;98220.66;;;;
2021/01/05 20:52:47;;;;;;;35.8;22.3;;;;;;;0.45;87.92773;98235.47;;;;
2021/01/05 21:02:45;;;;;;;41.6;28.1;;;;;;;0.5;87.9375;98235.53;;;;
2021/01/05 21:12:43;;;;;;;56.4;36;;;;;;;0.36;87.76563;98238.83;;;;
2021/01/05 21:22:41;;;;;;;29.2;20.1;;;;;;;0.41;87.60059;98241.54;;;;
2021/01/05 21:32:41;;;;;;;21.9;15.5;;;;;;;0.35;87.58789;98247.81;;;;
2021/01/05 21:42:37;;;;;;;26.6;15.9;;;;;;;0.37;87.61328;98253.69;;;;
2021/01/05 21:52:35;;;;;;;19.3;13.6;;;;;;;0.33;87.74902;98245.44;;;;
2021/01/05 22:02:32;;;;;;;20.4;12.4;;;;;;;0.24;87.52246;98252.24;;;;
2021/01/05 22:12:30;;;;;;;19.4;14.1;;;;;;;0.07;88.03613;98248.84;;;;
2021/01/05 22:22:28;;;;;;;30.1;19;;;;;;;0.08;88.1123;98247;;;;
2021/01/05 22:32:26;;;;;;;23.9;16.1;;;;;;;-0.03;88.23535;98246.89;;;;
2021/01/05 22:42:24;;;;;;;25;16.7;;;;;;;-0.04;88.18945;98242.66;;;;
2021/01/05 22:52:21;;;;;;;17.1;11.8;;;;;;;-0.28;88.69824;98233.36;;;;
2021/01/05 23:02:19;;;;;;;18.1;12.8;;;;;;;-0.5;88.72852;98251.06;;;;
2021/01/05 23:12:18;;;;;;;18.9;11.4;;;;;;;-0.42;89.83008;98276.32;;;;
2021/01/05 23:22:15;;;;;;;20.1;11;;;;;;;-0.19;89.23242;98266.3;;;;
2021/01/05 23:32:13;;;;;;;16.5;9.4;;;;;;;-0.05;88.69043;98272.03;;;;
2021/01/05 23:42:10;;;;;;;14.1;10;;;;;;;0.09;88.07031;98264.5;;;;
2021/01/05 23:52:08;;;;;;;12.4;8.9;;;;;;;0.22;87.59277;98269.41;;;;
